Jacqueline C — 2BON5 — position and weather

sailwx.info

Track history (hours):
 
Tides and Currents Weather Stations Pressure Air Temp Water Temp Dewpoint Dewpoint Depression Visibility Wind Speed Wind Dir Waves Ship Positions

Jacqueline C

Last reported at 2018-Feb-01 13:30 UTC. Time now 2018-Feb-23 10:52 UTC.
Position N 09°16' W 079°55'.
Warning: this ship's position is 21 days out of date.

Length 138 m; draft 6.7 m.

Type: Ship. MMSI: 235067944.

Date/timePositionNaut miles runAvg speedWind from/ knotsBaromVisibWave heightAir tempDewpointWater temp
2018-Feb-01 13:30N 09°16' W 079°55'0 0.7
2018-Feb-01 13:00N 09°17' W 079°55'2 3.9
2018-Feb-01 12:30N 09°19' W 079°55'4 7.1
2018-Feb-01 12:00N 09°22' W 079°56'0 0.4
2018-Feb-01 10:55N 09°22' W 079°56'0 0.0
2018-Feb-01 10:28N 09°22' W 079°56'0 0.0
2018-Feb-01 09:58N 09°22' W 079°56'0 0.0
2018-Feb-01 09:28N 09°22' W 079°56'0 0.0
2018-Feb-01 08:58N 09°22' W 079°56'0 0.0
2018-Feb-01 08:28N 09°22' W 079°56'0 0.0
2018-Feb-01 07:25N 09°22' W 079°56'0 0.0
2018-Feb-01 06:58N 09°22' W 079°56'0 0.0
2018-Feb-01 06:28N 09°22' W 079°56'0 0.0
2018-Feb-01 05:58N 09°22' W 079°56'0 0.0
2018-Feb-01 05:28N 09°22' W 079°56'0 0.0
2018-Feb-01 04:58N 09°22' W 079°56'0 0.0
2018-Feb-01 04:28N 09°22' W 079°56'0 0.0
2018-Feb-01 03:55N 09°22' W 079°56'0 0.0
2018-Feb-01 02:58N 09°22' W 079°56'0 0.0
2018-Feb-01 02:28N 09°22' W 079°56'0 0.0
2018-Feb-01 01:58N 09°22' W 079°56'0 0.0
2018-Feb-01 01:28N 09°22' W 079°56'0 0.0
2018-Feb-01 00:58N 09°22' W 079°56'0 0.0
2018-Feb-01 00:28N 09°22' W 079°56'0 0.0
2018-Jan-31 23:58N 09°22' W 079°56'0 0.0
2018-Jan-31 22:58N 09°22' W 079°56'0 0.0
2018-Jan-31 22:25N 09°22' W 079°56'0 0.0
2018-Jan-31 20:49N 09°22' W 079°56'0 0.1
2018-Jan-31 20:28N 09°22' W 079°56'0 0.0
2018-Jan-31 19:55N 09°22' W 079°56'0 0.0
2018-Jan-31 19:25N 09°22' W 079°56'0 0.0
2018-Jan-31 18:58N 09°22' W 079°56'0 0.0
2018-Jan-31 18:28N 09°22' W 079°56'0 0.0
2018-Jan-31 17:58N 09°22' W 079°56'0 0.0
2018-Jan-31 17:28N 09°22' W 079°56'0 0.2
2018-Jan-31 17:00N 09°22' W 079°56'2 3.8
2018-Jan-31 16:30N 09°24' W 079°55'3 6.8
2018-Jan-31 16:00N 09°27' W 079°57'0 0.5
2018-Jan-31 15:30N 09°27' W 079°57'0 0.0
2018-Jan-31 15:00N 09°27' W 079°57'0 0.0
2018-Jan-31 14:30N 09°27' W 079°57'0 0.0
2018-Jan-31 13:00N 09°27' W 079°57'0 0.0
2018-Jan-31 12:30N 09°27' W 079°57'0 0.0
2018-Jan-31 12:00N 09°27' W 079°57'0 0.0
2018-Jan-31 11:30N 09°27' W 079°57'0 0.0
2018-Jan-31 11:00N 09°26' W 079°57'0 0.0
2018-Jan-31 10:30N 09°27' W 079°57'0 0.0
2018-Jan-31 09:57N 09°27' W 079°57'0 0.0
2018-Jan-31 09:30N 09°27' W 079°57'0 0.0
2018-Jan-31 09:00N 09°27' W 079°57'0 0.0
2018-Jan-31 08:30N 09°27' W 079°57'0 0.0
2018-Jan-31 08:00N 09°27' W 079°57'0 0.0
2018-Jan-31 07:24N 09°27' W 079°57'0 0.0
2018-Jan-31 06:57N 09°27' W 079°57'0 0.0
2018-Jan-31 06:30N 09°27' W 079°57'0 0.0
2018-Jan-31 06:00N 09°27' W 079°57'0 0.0
2018-Jan-31 05:30N 09°27' W 079°57'0 0.0
2018-Jan-31 04:57N 09°27' W 079°57'0 0.0
2018-Jan-31 04:30N 09°27' W 079°57'0 0.0
2018-Jan-31 04:00N 09°27' W 079°57'0 0.0
2018-Jan-31 03:30N 09°27' W 079°57'0 0.0
2018-Jan-31 03:00N 09°27' W 079°57'0 0.0
2018-Jan-31 02:30N 09°27' W 079°57'0 0.0
2018-Jan-31 02:00N 09°26' W 079°57'0 0.0
2018-Jan-31 01:30N 09°26' W 079°57'0 0.0
2018-Jan-31 01:00N 09°27' W 079°57'0 0.0
2018-Jan-31 00:00N 09°27' W 079°57'0 0.0
2018-Jan-30 23:30N 09°26' W 079°57'0 0.0
2018-Jan-30 23:00N 09°27' W 079°57'0 0.0
2018-Jan-30 22:30N 09°26' W 079°57'0 0.0
2018-Jan-30 21:30N 09°26' W 079°57'0 0.0
2018-Jan-30 21:00N 09°26' W 079°57'0 0.0
2018-Jan-30 20:30N 09°27' W 079°57'0 0.0
2018-Jan-30 19:57N 09°27' W 079°57'0 0.1
2018-Jan-30 19:18N 09°27' W 079°57'0 1.1
2018-Jan-30 19:00N 09°26' W 079°57'3 6.5
2018-Jan-30 18:30N 09°28' W 079°55'4 7.9
2018-Jan-30 17:59N 09°32' W 079°53'  
Track history (hours):
 
Tides and Currents Weather Stations Pressure Air Temp Water Temp Dewpoint Dewpoint Depression Visibility Wind Speed Wind Dir Waves Ship Positions

Jacqueline C

Last reported at 2018-Feb-01 13:30 UTC. Time now 2018-Feb-23 10:52 UTC.
Position N 09°16' W 079°55'.
Warning: this ship's position is 21 days out of date.

Length 138 m; draft 6.7 m.

Type: Ship. MMSI: 235067944.

Date/timePositionNaut miles runAvg speedWind from/ knotsBaromVisibWave heightAir tempDewpointWater temp
2018-Feb-01 13:30N 09°16' W 079°55'0 0.7
2018-Feb-01 13:00N 09°17' W 079°55'2 3.9
2018-Feb-01 12:30N 09°19' W 079°55'4 7.1
2018-Feb-01 12:00N 09°22' W 079°56'0 0.4
2018-Feb-01 10:55N 09°22' W 079°56'0 0.0
2018-Feb-01 10:28N 09°22' W 079°56'0 0.0
2018-Feb-01 09:58N 09°22' W 079°56'0 0.0
2018-Feb-01 09:28N 09°22' W 079°56'0 0.0
2018-Feb-01 08:58N 09°22' W 079°56'0 0.0
2018-Feb-01 08:28N 09°22' W 079°56'0 0.0
2018-Feb-01 07:25N 09°22' W 079°56'0 0.0
2018-Feb-01 06:58N 09°22' W 079°56'0 0.0
2018-Feb-01 06:28N 09°22' W 079°56'0 0.0
2018-Feb-01 05:58N 09°22' W 079°56'0 0.0
2018-Feb-01 05:28N 09°22' W 079°56'0 0.0
2018-Feb-01 04:58N 09°22' W 079°56'0 0.0
2018-Feb-01 04:28N 09°22' W 079°56'0 0.0
2018-Feb-01 03:55N 09°22' W 079°56'0 0.0
2018-Feb-01 02:58N 09°22' W 079°56'0 0.0
2018-Feb-01 02:28N 09°22' W 079°56'0 0.0
2018-Feb-01 01:58N 09°22' W 079°56'0 0.0
2018-Feb-01 01:28N 09°22' W 079°56'0 0.0
2018-Feb-01 00:58N 09°22' W 079°56'0 0.0
2018-Feb-01 00:28N 09°22' W 079°56'0 0.0
2018-Jan-31 23:58N 09°22' W 079°56'0 0.0
2018-Jan-31 22:58N 09°22' W 079°56'0 0.0
2018-Jan-31 22:25N 09°22' W 079°56'0 0.0
2018-Jan-31 20:49N 09°22' W 079°56'0 0.1
2018-Jan-31 20:28N 09°22' W 079°56'0 0.0
2018-Jan-31 19:55N 09°22' W 079°56'0 0.0
2018-Jan-31 19:25N 09°22' W 079°56'0 0.0
2018-Jan-31 18:58N 09°22' W 079°56'0 0.0
2018-Jan-31 18:28N 09°22' W 079°56'0 0.0
2018-Jan-31 17:58N 09°22' W 079°56'0 0.0
2018-Jan-31 17:28N 09°22' W 079°56'0 0.2
2018-Jan-31 17:00N 09°22' W 079°56'2 3.8
2018-Jan-31 16:30N 09°24' W 079°55'3 6.8
2018-Jan-31 16:00N 09°27' W 079°57'0 0.5
2018-Jan-31 15:30N 09°27' W 079°57'0 0.0
2018-Jan-31 15:00N 09°27' W 079°57'0 0.0
2018-Jan-31 14:30N 09°27' W 079°57'0 0.0
2018-Jan-31 13:00N 09°27' W 079°57'0 0.0
2018-Jan-31 12:30N 09°27' W 079°57'0 0.0
2018-Jan-31 12:00N 09°27' W 079°57'0 0.0
2018-Jan-31 11:30N 09°27' W 079°57'0 0.0
2018-Jan-31 11:00N 09°26' W 079°57'0 0.0
2018-Jan-31 10:30N 09°27' W 079°57'0 0.0
2018-Jan-31 09:57N 09°27' W 079°57'0 0.0
2018-Jan-31 09:30N 09°27' W 079°57'0 0.0
2018-Jan-31 09:00N 09°27' W 079°57'0 0.0
2018-Jan-31 08:30N 09°27' W 079°57'0 0.0
2018-Jan-31 08:00N 09°27' W 079°57'0 0.0
2018-Jan-31 07:24N 09°27' W 079°57'0 0.0
2018-Jan-31 06:57N 09°27' W 079°57'0 0.0
2018-Jan-31 06:30N 09°27' W 079°57'0 0.0
2018-Jan-31 06:00N 09°27' W 079°57'0 0.0
2018-Jan-31 05:30N 09°27' W 079°57'0 0.0
2018-Jan-31 04:57N 09°27' W 079°57'0 0.0
2018-Jan-31 04:30N 09°27' W 079°57'0 0.0
2018-Jan-31 04:00N 09°27' W 079°57'0 0.0
2018-Jan-31 03:30N 09°27' W 079°57'0 0.0
2018-Jan-31 03:00N 09°27' W 079°57'0 0.0
2018-Jan-31 02:30N 09°27' W 079°57'0 0.0
2018-Jan-31 02:00N 09°26' W 079°57'0 0.0
2018-Jan-31 01:30N 09°26' W 079°57'0 0.0
2018-Jan-31 01:00N 09°27' W 079°57'0 0.0
2018-Jan-31 00:00N 09°27' W 079°57'0 0.0
2018-Jan-30 23:30N 09°26' W 079°57'0 0.0
2018-Jan-30 23:00N 09°27' W 079°57'0 0.0
2018-Jan-30 22:30N 09°26' W 079°57'0 0.0
2018-Jan-30 21:30N 09°26' W 079°57'0 0.0
2018-Jan-30 21:00N 09°26' W 079°57'0 0.0
2018-Jan-30 20:30N 09°27' W 079°57'0 0.0
2018-Jan-30 19:57N 09°27' W 079°57'0 0.1
2018-Jan-30 19:18N 09°27' W 079°57'0 1.1
2018-Jan-30 19:00N 09°26' W 079°57'3 6.5
2018-Jan-30 18:30N 09°28' W 079°55'4 7.9
2018-Jan-30 17:59N 09°32' W 079°53'  

Dump ship's entire track history